sensor_id;sensor_type;location;lat;lon;timestamp;temperature;humidity
23124;DHT22;11731;48.592;8.858;2022-12-05T00:00:11;5.20;99.90
23124;DHT22;11731;48.592;8.858;2022-12-05T00:02:38;5.50;99.90
23124;DHT22;11731;48.592;8.858;2022-12-05T00:05:05;5.50;99.90
23124;DHT22;11731;48.592;8.858;2022-12-05T00:07:32;5.60;99.90
23124;DHT22;11731;48.592;8.858;2022-12-05T00:10:11;5.90;99.90
23124;DHT22;11731;48.592;8.858;2022-12-05T00:13:03;6.30;99.90
23124;DHT22;11731;48.592;8.858;2022-12-05T00:15:30;6.40;99.90
23124;DHT22;11731;48.592;8.858;2022-12-05T00:17:57;6.40;99.90
23124;DHT22;11731;48.592;8.858;2022-12-05T00:20:25;6.50;99.90
23124;DHT22;11731;48.592;8.858;2022-12-05T00:22:52;6.60;99.90
23124;DHT22;11731;48.592;8.858;2022-12-05T00:25:20;6.20;99.90
23124;DHT22;11731;48.592;8.858;2022-12-05T00:27:47;6.10;99.90
23124;DHT22;11731;48.592;8.858;2022-12-05T00:30:14;6.00;99.90
23124;DHT22;11731;48.592;8.858;2022-12-05T00:32:41;6.10;99.90
23124;DHT22;11731;48.592;8.858;2022-12-05T00:35:08;6.10;99.90
23124;DHT22;11731;48.592;8.858;2022-12-05T00:37:35;5.90;99.90
23124;DHT22;11731;48.592;8.858;2022-12-05T00:40:02;6.00;99.90
23124;DHT22;11731;48.592;8.858;2022-12-05T00:42:34;6.00;99.90
23124;DHT22;11731;48.592;8.858;2022-12-05T00:45:01;6.20;99.90
23124;DHT22;11731;48.592;8.858;2022-12-05T00:47:27;5.90;99.90
23124;DHT22;11731;48.592;8.858;2022-12-05T00:49:56;5.80;99.90
23124;DHT22;11731;48.592;8.858;2022-12-05T00:55:14;5.60;99.90
23124;DHT22;11731;48.592;8.858;2022-12-05T00:57:43;5.70;99.90
23124;DHT22;11731;48.592;8.858;2022-12-05T01:00:10;6.10;99.90
23124;DHT22;11731;48.592;8.858;2022-12-05T01:02:38;6.10;99.90
23124;DHT22;11731;48.592;8.858;2022-12-05T01:05:35;6.10;99.90
23124;DHT22;11731;48.592;8.858;2022-12-05T01:10:39;6.40;99.90
23124;DHT22;11731;48.592;8.858;2022-12-05T01:13:08;6.50;99.90
23124;DHT22;11731;48.592;8.858;2022-12-05T01:15:35;6.60;99.90
23124;DHT22;11731;48.592;8.858;2022-12-05T01:18:03;6.70;99.90
23124;DHT22;11731;48.592;8.858;2022-12-05T01:21:03;6.90;99.90
23124;DHT22;11731;48.592;8.858;2022-12-05T01:23:49;7.00;99.90
23124;DHT22;11731;48.592;8.858;2022-12-05T01:26:18;6.90;99.90
23124;DHT22;11731;48.592;8.858;2022-12-05T01:28:47;6.60;99.90
23124;DHT22;11731;48.592;8.858;2022-12-05T01:31:18;6.30;99.90
23124;DHT22;11731;48.592;8.858;2022-12-05T01:33:49;6.10;99.90
23124;DHT22;11731;48.592;8.858;2022-12-05T01:36:16;6.10;99.90
23124;DHT22;11731;48.592;8.858;2022-12-05T01:38:43;6.20;99.90
23124;DHT22;11731;48.592;8.858;2022-12-05T01:41:13;6.20;99.90
23124;DHT22;11731;48.592;8.858;2022-12-05T01:43:55;6.40;99.90
23124;DHT22;11731;48.592;8.858;2022-12-05T01:46:25;6.30;99.90
23124;DHT22;11731;48.592;8.858;2022-12-05T01:49:03;6.50;99.90
23124;DHT22;11731;48.592;8.858;2022-12-05T01:51:31;6.10;99.90
23124;DHT22;11731;48.592;8.858;2022-12-05T01:54:08;5.90;99.90
23124;DHT22;11731;48.592;8.858;2022-12-05T01:56:47;6.30;99.90
23124;DHT22;11731;48.592;8.858;2022-12-05T01:59:17;6.60;99.90
23124;DHT22;11731;48.592;8.858;2022-12-05T02:01:46;6.50;99.90
23124;DHT22;11731;48.592;8.858;2022-12-05T02:04:13;6.60;99.90
23124;DHT22;11731;48.592;8.858;2022-12-05T02:06:44;6.30;99.90
23124;DHT22;11731;48.592;8.858;2022-12-05T02:09:12;6.30;99.90
23124;DHT22;11731;48.592;8.858;2022-12-05T02:11:45;6.60;99.90
23124;DHT22;11731;48.592;8.858;2022-12-05T02:14:37;6.40;99.90
23124;DHT22;11731;48.592;8.858;2022-12-05T02:17:13;6.20;99.90
23124;DHT22;11731;48.592;8.858;2022-12-05T02:20:03;6.30;99.90
23124;DHT22;11731;48.592;8.858;2022-12-05T02:23:10;6.00;99.90
23124;DHT22;11731;48.592;8.858;2022-12-05T02:26:18;6.20;99.90
23124;DHT22;11731;48.592;8.858;2022-12-05T02:32:23;6.00;99.90
23124;DHT22;11731;48.592;8.858;2022-12-05T02:35:04;6.10;99.90
23124;DHT22;11731;48.592;8.858;2022-12-05T02:37:39;5.80;99.90
23124;DHT22;11731;48.592;8.858;2022-12-05T02:40:11;5.90;99.90
23124;DHT22;11731;48.592;8.858;2022-12-05T02:42:43;6.20;99.90
23124;DHT22;11731;48.592;8.858;2022-12-05T02:45:15;6.40;99.90
23124;DHT22;11731;48.592;8.858;2022-12-05T02:47:46;6.70;99.90
23124;DHT22;11731;48.592;8.858;2022-12-05T02:50:17;6.80;99.90
23124;DHT22;11731;48.592;8.858;2022-12-05T02:52:46;6.90;99.90
23124;DHT22;11731;48.592;8.858;2022-12-05T02:55:26;6.80;99.90
23124;DHT22;11731;48.592;8.858;2022-12-05T02:57:57;7.00;99.90
23124;DHT22;11731;48.592;8.858;2022-12-05T03:00:25;6.80;99.90
23124;DHT22;11731;48.592;8.858;2022-12-05T03:02:57;6.60;99.90
23124;DHT22;11731;48.592;8.858;2022-12-05T03:05:34;6.80;99.90
23124;DHT22;11731;48.592;8.858;2022-12-05T03:08:07;6.90;99.90
23124;DHT22;11731;48.592;8.858;2022-12-05T03:10:42;6.90;99.90
23124;DHT22;11731;48.592;8.858;2022-12-05T03:13:15;6.80;99.90
23124;DHT22;11731;48.592;8.858;2022-12-05T03:15:47;6.70;99.90
23124;DHT22;11731;48.592;8.858;2022-12-05T03:18:35;7.00;99.90
23124;DHT22;11731;48.592;8.858;2022-12-05T03:21:07;7.10;99.90
23124;DHT22;11731;48.592;8.858;2022-12-05T03:23:38;7.20;99.90
23124;DHT22;11731;48.592;8.858;2022-12-05T03:26:15;7.40;99.90
23124;DHT22;11731;48.592;8.858;2022-12-05T03:28:53;7.30;99.90
23124;DHT22;11731;48.592;8.858;2022-12-05T03:31:26;7.20;99.90
23124;DHT22;11731;48.592;8.858;2022-12-05T03:34:10;6.80;99.90
23124;DHT22;11731;48.592;8.858;2022-12-05T03:36:43;7.00;99.90
23124;DHT22;11731;48.592;8.858;2022-12-05T03:39:19;7.00;99.90
23124;DHT22;11731;48.592;8.858;2022-12-05T03:41:54;7.20;99.90
23124;DHT22;11731;48.592;8.858;2022-12-05T03:44:43;7.10;99.90
23124;DHT22;11731;48.592;8.858;2022-12-05T03:47:23;7.10;99.90
23124;DHT22;11731;48.592;8.858;2022-12-05T03:49:57;7.00;99.90
23124;DHT22;11731;48.592;8.858;2022-12-05T03:52:46;6.70;99.90
23124;DHT22;11731;48.592;8.858;2022-12-05T03:55:23;6.90;99.90
23124;DHT22;11731;48.592;8.858;2022-12-05T03:57:53;6.60;99.90
23124;DHT22;11731;48.592;8.858;2022-12-05T04:00:22;6.30;99.90
23124;DHT22;11731;48.592;8.858;2022-12-05T04:02:53;6.00;99.90
23124;DHT22;11731;48.592;8.858;2022-12-05T04:05:27;5.80;99.90
23124;DHT22;11731;48.592;8.858;2022-12-05T04:08:00;5.90;99.90
23124;DHT22;11731;48.592;8.858;2022-12-05T04:10:34;5.90;99.90
23124;DHT22;11731;48.592;8.858;2022-12-05T04:13:15;5.90;99.90
23124;DHT22;11731;48.592;8.858;2022-12-05T04:15:47;6.40;99.90
23124;DHT22;11731;48.592;8.858;2022-12-05T04:18:33;6.50;99.90
23124;DHT22;11731;48.592;8.858;2022-12-05T04:21:04;6.80;99.90
23124;DHT22;11731;48.592;8.858;2022-12-05T04:23:50;6.70;99.90
23124;DHT22;11731;48.592;8.858;2022-12-05T04:26:31;6.60;99.90
23124;DHT22;11731;48.592;8.858;2022-12-05T04:29:04;6.80;99.90
23124;DHT22;11731;48.592;8.858;2022-12-05T04:31:38;6.80;99.90
23124;DHT22;11731;48.592;8.858;2022-12-05T04:34:07;6.90;99.90
23124;DHT22;11731;48.592;8.858;2022-12-05T04:36:42;6.80;99.90
23124;DHT22;11731;48.592;8.858;2022-12-05T04:39:13;6.60;99.90
23124;DHT22;11731;48.592;8.858;2022-12-05T04:41:47;6.50;99.90
23124;DHT22;11731;48.592;8.858;2022-12-05T04:44:24;6.50;99.90
23124;DHT22;11731;48.592;8.858;2022-12-05T04:46:54;6.80;99.90
23124;DHT22;11731;48.592;8.858;2022-12-05T04:49:25;6.70;99.90
23124;DHT22;11731;48.592;8.858;2022-12-05T04:51:58;6.50;99.90
23124;DHT22;11731;48.592;8.858;2022-12-05T04:54:29;6.50;99.90
23124;DHT22;11731;48.592;8.858;2022-12-05T04:57:17;6.40;99.90
23124;DHT22;11731;48.592;8.858;2022-12-05T05:00:01;6.40;99.90
23124;DHT22;11731;48.592;8.858;2022-12-05T05:02:49;6.30;99.90
23124;DHT22;11731;48.592;8.858;2022-12-05T05:05:18;6.10;99.90
23124;DHT22;11731;48.592;8.858;2022-12-05T05:07:51;6.30;99.90
23124;DHT22;11731;48.592;8.858;2022-12-05T05:10:22;6.30;99.90
23124;DHT22;11731;48.592;8.858;2022-12-05T05:12:51;6.30;99.90
23124;DHT22;11731;48.592;8.858;2022-12-05T05:15:18;6.40;99.90
23124;DHT22;11731;48.592;8.858;2022-12-05T05:17:45;6.30;99.90
23124;DHT22;11731;48.592;8.858;2022-12-05T05:20:12;6.20;99.90
23124;DHT22;11731;48.592;8.858;2022-12-05T05:22:53;6.50;99.90
23124;DHT22;11731;48.592;8.858;2022-12-05T05:25:21;6.60;99.90
23124;DHT22;11731;48.592;8.858;2022-12-05T05:27:49;6.80;99.90
23124;DHT22;11731;48.592;8.858;2022-12-05T05:30:17;6.50;99.90
23124;DHT22;11731;48.592;8.858;2022-12-05T05:32:44;6.60;99.90
23124;DHT22;11731;48.592;8.858;2022-12-05T05:35:11;6.70;99.90
23124;DHT22;11731;48.592;8.858;2022-12-05T05:37:38;6.70;99.90
23124;DHT22;11731;48.592;8.858;2022-12-05T05:40:09;6.90;99.90
23124;DHT22;11731;48.592;8.858;2022-12-05T05:42:41;7.00;99.90
23124;DHT22;11731;48.592;8.858;2022-12-05T05:45:09;6.80;99.90
23124;DHT22;11731;48.592;8.858;2022-12-05T05:47:36;6.80;99.90
23124;DHT22;11731;48.592;8.858;2022-12-05T05:50:04;6.80;99.90
23124;DHT22;11731;48.592;8.858;2022-12-05T05:52:32;6.40;99.90
23124;DHT22;11731;48.592;8.858;2022-12-05T05:54:59;6.40;99.90
23124;DHT22;11731;48.592;8.858;2022-12-05T05:57:28;6.40;99.90
23124;DHT22;11731;48.592;8.858;2022-12-05T05:59:56;6.60;99.90
23124;DHT22;11731;48.592;8.858;2022-12-05T06:02:22;6.60;99.90
23124;DHT22;11731;48.592;8.858;2022-12-05T06:04:49;6.60;99.90
23124;DHT22;11731;48.592;8.858;2022-12-05T06:07:16;6.60;99.90
23124;DHT22;11731;48.592;8.858;2022-12-05T06:09:43;6.50;99.90
23124;DHT22;11731;48.592;8.858;2022-12-05T06:12:10;6.70;99.90
23124;DHT22;11731;48.592;8.858;2022-12-05T06:14:39;6.70;99.90
23124;DHT22;11731;48.592;8.858;2022-12-05T06:17:06;6.40;99.90
23124;DHT22;11731;48.592;8.858;2022-12-05T06:19:33;6.00;99.90
23124;DHT22;11731;48.592;8.858;2022-12-05T06:22:00;5.90;99.90
23124;DHT22;11731;48.592;8.858;2022-12-05T06:24:27;5.80;99.90
23124;DHT22;11731;48.592;8.858;2022-12-05T06:26:54;5.80;99.90
23124;DHT22;11731;48.592;8.858;2022-12-05T06:29:21;5.80;99.90
23124;DHT22;11731;48.592;8.858;2022-12-05T06:31:49;5.70;99.90
23124;DHT22;11731;48.592;8.858;2022-12-05T06:34:16;5.90;99.90
23124;DHT22;11731;48.592;8.858;2022-12-05T06:36:43;5.80;99.90
23124;DHT22;11731;48.592;8.858;2022-12-05T06:39:10;5.90;99.90
23124;DHT22;11731;48.592;8.858;2022-12-05T06:41:37;5.90;99.90
23124;DHT22;11731;48.592;8.858;2022-12-05T06:44:04;6.30;99.90
23124;DHT22;11731;48.592;8.858;2022-12-05T06:46:31;6.30;99.90
23124;DHT22;11731;48.592;8.858;2022-12-05T06:49:00;6.20;99.90
23124;DHT22;11731;48.592;8.858;2022-12-05T06:51:27;5.90;99.90
23124;DHT22;11731;48.592;8.858;2022-12-05T06:53:54;5.60;99.90
23124;DHT22;11731;48.592;8.858;2022-12-05T06:56:21;5.60;99.90
23124;DHT22;11731;48.592;8.858;2022-12-05T06:58:49;5.70;99.90
23124;DHT22;11731;48.592;8.858;2022-12-05T07:01:20;5.80;99.90
23124;DHT22;11731;48.592;8.858;2022-12-05T07:04:10;5.70;99.90
23124;DHT22;11731;48.592;8.858;2022-12-05T07:06:38;5.90;99.90
23124;DHT22;11731;48.592;8.858;2022-12-05T07:09:06;6.10;99.90
23124;DHT22;11731;48.592;8.858;2022-12-05T07:11:33;6.40;99.90
23124;DHT22;11731;48.592;8.858;2022-12-05T07:14:00;6.50;99.90
23124;DHT22;11731;48.592;8.858;2022-12-05T07:16:27;6.50;99.90
23124;DHT22;11731;48.592;8.858;2022-12-05T07:18:55;6.40;99.90
23124;DHT22;11731;48.592;8.858;2022-12-05T07:21:23;6.40;99.90
23124;DHT22;11731;48.592;8.858;2022-12-05T07:23:51;6.50;99.90
23124;DHT22;11731;48.592;8.858;2022-12-05T07:26:19;6.50;99.90
23124;DHT22;11731;48.592;8.858;2022-12-05T07:28:47;6.70;99.90
23124;DHT22;11731;48.592;8.858;2022-12-05T07:31:17;6.80;99.90
23124;DHT22;11731;48.592;8.858;2022-12-05T07:33:44;6.70;99.90
23124;DHT22;11731;48.592;8.858;2022-12-05T07:36:13;6.90;99.90
23124;DHT22;11731;48.592;8.858;2022-12-05T07:38:42;7.00;99.90
23124;DHT22;11731;48.592;8.858;2022-12-05T07:41:13;6.80;99.90
23124;DHT22;11731;48.592;8.858;2022-12-05T07:43:43;6.50;99.90
23124;DHT22;11731;48.592;8.858;2022-12-05T07:46:10;6.20;99.90
23124;DHT22;11731;48.592;8.858;2022-12-05T07:48:37;6.10;99.90
23124;DHT22;11731;48.592;8.858;2022-12-05T07:51:06;6.30;99.90
23124;DHT22;11731;48.592;8.858;2022-12-05T07:53:34;6.30;99.90
23124;DHT22;11731;48.592;8.858;2022-12-05T07:56:04;6.30;99.90
23124;DHT22;11731;48.592;8.858;2022-12-05T07:58:33;6.60;99.90
23124;DHT22;11731;48.592;8.858;2022-12-05T08:01:05;6.80;99.90
23124;DHT22;11731;48.592;8.858;2022-12-05T08:03:32;7.00;99.90
23124;DHT22;11731;48.592;8.858;2022-12-05T08:06:00;7.20;99.90
23124;DHT22;11731;48.592;8.858;2022-12-05T08:08:28;7.40;99.90
23124;DHT22;11731;48.592;8.858;2022-12-05T08:10:54;7.40;99.90
23124;DHT22;11731;48.592;8.858;2022-12-05T08:13:23;7.40;99.90
23124;DHT22;11731;48.592;8.858;2022-12-05T08:15:50;7.30;99.90
23124;DHT22;11731;48.592;8.858;2022-12-05T08:18:16;7.10;99.90
23124;DHT22;11731;48.592;8.858;2022-12-05T08:20:43;7.00;99.90
23124;DHT22;11731;48.592;8.858;2022-12-05T08:23:10;7.20;99.90
23124;DHT22;11731;48.592;8.858;2022-12-05T08:25:37;7.30;99.90
23124;DHT22;11731;48.592;8.858;2022-12-05T08:28:04;7.30;99.90
23124;DHT22;11731;48.592;8.858;2022-12-05T08:30:34;7.10;99.90
23124;DHT22;11731;48.592;8.858;2022-12-05T08:33:00;6.70;99.90
23124;DHT22;11731;48.592;8.858;2022-12-05T08:35:28;6.80;99.90
23124;DHT22;11731;48.592;8.858;2022-12-05T08:37:55;6.80;99.90
23124;DHT22;11731;48.592;8.858;2022-12-05T08:40:22;6.40;99.90
23124;DHT22;11731;48.592;8.858;2022-12-05T08:42:49;6.80;99.90
23124;DHT22;11731;48.592;8.858;2022-12-05T08:45:16;7.00;99.90
23124;DHT22;11731;48.592;8.858;2022-12-05T08:47:44;7.10;99.90
23124;DHT22;11731;48.592;8.858;2022-12-05T08:50:11;7.20;99.90
23124;DHT22;11731;48.592;8.858;2022-12-05T08:52:38;7.40;99.90
23124;DHT22;11731;48.592;8.858;2022-12-05T08:55:06;7.40;99.90
23124;DHT22;11731;48.592;8.858;2022-12-05T08:57:33;7.40;99.90
23124;DHT22;11731;48.592;8.858;2022-12-05T09:00:00;7.40;99.90
23124;DHT22;11731;48.592;8.858;2022-12-05T09:02:27;7.10;99.90
23124;DHT22;11731;48.592;8.858;2022-12-05T09:04:56;7.20;99.90
23124;DHT22;11731;48.592;8.858;2022-12-05T09:07:23;7.10;99.90
23124;DHT22;11731;48.592;8.858;2022-12-05T09:09:49;7.10;99.90
23124;DHT22;11731;48.592;8.858;2022-12-05T09:12:16;7.30;99.90
23124;DHT22;11731;48.592;8.858;2022-12-05T09:14:43;7.60;99.90
23124;DHT22;11731;48.592;8.858;2022-12-05T09:17:10;8.10;99.90
23124;DHT22;11731;48.592;8.858;2022-12-05T09:19:37;8.20;99.90
23124;DHT22;11731;48.592;8.858;2022-12-05T09:22:05;8.10;99.90
23124;DHT22;11731;48.592;8.858;2022-12-05T09:24:32;8.40;99.90
23124;DHT22;11731;48.592;8.858;2022-12-05T09:26:59;8.40;99.90
23124;DHT22;11731;48.592;8.858;2022-12-05T09:29:26;8.60;99.90
23124;DHT22;11731;48.592;8.858;2022-12-05T09:31:54;8.90;99.90
23124;DHT22;11731;48.592;8.858;2022-12-05T09:34:20;8.90;99.90
23124;DHT22;11731;48.592;8.858;2022-12-05T09:36:49;8.60;99.90
23124;DHT22;11731;48.592;8.858;2022-12-05T09:39:18;8.40;99.90
23124;DHT22;11731;48.592;8.858;2022-12-05T09:42:03;8.00;99.90
23124;DHT22;11731;48.592;8.858;2022-12-05T09:44:52;7.80;99.90
23124;DHT22;11731;48.592;8.858;2022-12-05T09:47:33;7.70;99.90
23124;DHT22;11731;48.592;8.858;2022-12-05T09:50:11;7.50;99.90
23124;DHT22;11731;48.592;8.858;2022-12-05T09:52:42;7.30;99.90
23124;DHT22;11731;48.592;8.858;2022-12-05T09:55:13;7.30;99.90
23124;DHT22;11731;48.592;8.858;2022-12-05T09:57:44;7.50;99.90
23124;DHT22;11731;48.592;8.858;2022-12-05T10:00:14;7.80;99.90
23124;DHT22;11731;48.592;8.858;2022-12-05T10:02:49;7.90;99.90
23124;DHT22;11731;48.592;8.858;2022-12-05T10:05:20;8.10;99.90
23124;DHT22;11731;48.592;8.858;2022-12-05T10:07:56;8.30;99.90
23124;DHT22;11731;48.592;8.858;2022-12-05T10:10:39;8.50;99.90
23124;DHT22;11731;48.592;8.858;2022-12-05T10:13:23;8.90;99.90
23124;DHT22;11731;48.592;8.858;2022-12-05T10:15:54;9.00;99.90
23124;DHT22;11731;48.592;8.858;2022-12-05T10:18:28;8.70;99.90
23124;DHT22;11731;48.592;8.858;2022-12-05T10:20:59;8.50;99.90
23124;DHT22;11731;48.592;8.858;2022-12-05T10:23:29;8.40;99.90
23124;DHT22;11731;48.592;8.858;2022-12-05T10:26:03;8.80;99.90
23124;DHT22;11731;48.592;8.858;2022-12-05T10:28:33;8.70;99.90
23124;DHT22;11731;48.592;8.858;2022-12-05T10:31:06;8.50;99.90
23124;DHT22;11731;48.592;8.858;2022-12-05T10:33:41;8.80;99.90
23124;DHT22;11731;48.592;8.858;2022-12-05T10:36:12;9.20;99.90
23124;DHT22;11731;48.592;8.858;2022-12-05T10:38:41;9.50;99.90
23124;DHT22;11731;48.592;8.858;2022-12-05T10:41:12;9.80;99.90
23124;DHT22;11731;48.592;8.858;2022-12-05T10:43:41;9.60;99.90
23124;DHT22;11731;48.592;8.858;2022-12-05T10:46:09;9.40;99.90
23124;DHT22;11731;48.592;8.858;2022-12-05T10:48:37;9.10;99.90
23124;DHT22;11731;48.592;8.858;2022-12-05T10:51:06;9.10;99.90
23124;DHT22;11731;48.592;8.858;2022-12-05T10:53:38;8.90;99.90
23124;DHT22;11731;48.592;8.858;2022-12-05T10:59:08;8.60;99.90
23124;DHT22;11731;48.592;8.858;2022-12-05T11:01:37;8.50;99.90
23124;DHT22;11731;48.592;8.858;2022-12-05T11:04:18;8.20;99.90
23124;DHT22;11731;48.592;8.858;2022-12-05T11:06:55;7.90;99.90
23124;DHT22;11731;48.592;8.858;2022-12-05T11:09:24;7.80;99.90
23124;DHT22;11731;48.592;8.858;2022-12-05T11:12:15;8.00;99.90
23124;DHT22;11731;48.592;8.858;2022-12-05T11:14:55;8.00;99.90
23124;DHT22;11731;48.592;8.858;2022-12-05T11:17:25;8.20;99.90
23124;DHT22;11731;48.592;8.858;2022-12-05T11:19:52;8.50;99.90
23124;DHT22;11731;48.592;8.858;2022-12-05T11:22:19;8.50;99.90
23124;DHT22;11731;48.592;8.858;2022-12-05T11:24:47;8.50;99.90
23124;DHT22;11731;48.592;8.858;2022-12-05T11:27:25;8.70;99.90
23124;DHT22;11731;48.592;8.858;2022-12-05T11:29:57;8.90;99.90
23124;DHT22;11731;48.592;8.858;2022-12-05T11:32:27;9.10;99.90
23124;DHT22;11731;48.592;8.858;2022-12-05T11:35:08;9.40;99.90
23124;DHT22;11731;48.592;8.858;2022-12-05T11:37:43;9.50;99.90
23124;DHT22;11731;48.592;8.858;2022-12-05T11:40:16;9.30;99.90
23124;DHT22;11731;48.592;8.858;2022-12-05T11:43:02;9.30;99.90
23124;DHT22;11731;48.592;8.858;2022-12-05T11:45:44;9.50;99.90
23124;DHT22;11731;48.592;8.858;2022-12-05T11:48:35;9.90;99.90
23124;DHT22;11731;48.592;8.858;2022-12-05T11:51:18;9.50;99.90
23124;DHT22;11731;48.592;8.858;2022-12-05T11:54:43;9.30;99.90
23124;DHT22;11731;48.592;8.858;2022-12-05T11:57:15;9.50;99.90
23124;DHT22;11731;48.592;8.858;2022-12-05T12:06:11;10.00;99.90
23124;DHT22;11731;48.592;8.858;2022-12-05T12:08:55;9.80;99.90
23124;DHT22;11731;48.592;8.858;2022-12-05T12:11:32;9.60;99.90
23124;DHT22;11731;48.592;8.858;2022-12-05T12:14:06;9.30;99.90
23124;DHT22;11731;48.592;8.858;2022-12-05T12:16:44;9.20;99.90
23124;DHT22;11731;48.592;8.858;2022-12-05T12:22:44;9.20;99.90
23124;DHT22;11731;48.592;8.858;2022-12-05T12:25:39;9.40;99.90
23124;DHT22;11731;48.592;8.858;2022-12-05T12:31:45;9.00;99.90
23124;DHT22;11731;48.592;8.858;2022-12-05T12:35:35;8.50;99.90
23124;DHT22;11731;48.592;8.858;2022-12-05T12:37:50;8.30;99.90
23124;DHT22;11731;48.592;8.858;2022-12-05T12:40:21;8.10;99.90
23124;DHT22;11731;48.592;8.858;2022-12-05T12:42:59;8.10;99.90
23124;DHT22;11731;48.592;8.858;2022-12-05T12:45:50;8.40;99.90
23124;DHT22;11731;48.592;8.858;2022-12-05T12:48:38;8.30;99.90
23124;DHT22;11731;48.592;8.858;2022-12-05T12:51:11;8.40;99.90
23124;DHT22;11731;48.592;8.858;2022-12-05T12:54:11;8.30;99.90
23124;DHT22;11731;48.592;8.858;2022-12-05T12:57:01;8.50;99.90
23124;DHT22;11731;48.592;8.858;2022-12-05T12:59:44;8.50;99.90
23124;DHT22;11731;48.592;8.858;2022-12-05T13:02:38;8.90;99.90
23124;DHT22;11731;48.592;8.858;2022-12-05T13:05:14;8.80;99.90
23124;DHT22;11731;48.592;8.858;2022-12-05T13:07:46;8.80;99.90
23124;DHT22;11731;48.592;8.858;2022-12-05T13:10:24;8.90;99.90
23124;DHT22;11731;48.592;8.858;2022-12-05T13:29:40;8.50;99.90
23124;DHT22;11731;48.592;8.858;2022-12-05T13:32:25;8.10;99.90
23124;DHT22;11731;48.592;8.858;2022-12-05T13:34:53;7.80;99.90
23124;DHT22;11731;48.592;8.858;2022-12-05T13:37:35;7.80;99.90
23124;DHT22;11731;48.592;8.858;2022-12-05T13:40:28;7.60;99.90
23124;DHT22;11731;48.592;8.858;2022-12-05T13:43:15;7.30;99.90
23124;DHT22;11731;48.592;8.858;2022-12-05T13:45:57;7.40;99.90
23124;DHT22;11731;48.592;8.858;2022-12-05T13:48:26;7.60;99.90
23124;DHT22;11731;48.592;8.858;2022-12-05T13:50:57;7.70;99.90
23124;DHT22;11731;48.592;8.858;2022-12-05T13:53:39;7.60;99.90
23124;DHT22;11731;48.592;8.858;2022-12-05T13:56:25;7.50;99.90
23124;DHT22;11731;48.592;8.858;2022-12-05T13:58:53;7.90;99.90
23124;DHT22;11731;48.592;8.858;2022-12-05T14:01:47;7.90;99.90
23124;DHT22;11731;48.592;8.858;2022-12-05T14:07:37;7.90;99.90
23124;DHT22;11731;48.592;8.858;2022-12-05T14:10:06;7.80;99.90
23124;DHT22;11731;48.592;8.858;2022-12-05T14:12:52;7.80;99.90
23124;DHT22;11731;48.592;8.858;2022-12-05T14:15:28;7.80;99.90
23124;DHT22;11731;48.592;8.858;2022-12-05T14:18:04;7.60;99.90
23124;DHT22;11731;48.592;8.858;2022-12-05T14:20:52;7.80;99.90
23124;DHT22;11731;48.592;8.858;2022-12-05T14:23:53;8.00;99.90
23124;DHT22;11731;48.592;8.858;2022-12-05T14:26:47;7.70;99.90
23124;DHT22;11731;48.592;8.858;2022-12-05T14:29:37;7.60;99.90
23124;DHT22;11731;48.592;8.858;2022-12-05T14:32:15;7.70;99.90
23124;DHT22;11731;48.592;8.858;2022-12-05T14:35:11;7.80;99.90
23124;DHT22;11731;48.592;8.858;2022-12-05T14:37:41;8.00;99.90
23124;DHT22;11731;48.592;8.858;2022-12-05T14:40:27;8.10;99.90
23124;DHT22;11731;48.592;8.858;2022-12-05T14:43:06;7.80;99.90
23124;DHT22;11731;48.592;8.858;2022-12-05T14:45:36;7.70;99.90
23124;DHT22;11731;48.592;8.858;2022-12-05T14:48:21;7.70;99.90
23124;DHT22;11731;48.592;8.858;2022-12-05T14:50:53;7.60;99.90
23124;DHT22;11731;48.592;8.858;2022-12-05T14:53:30;7.60;99.90
23124;DHT22;11731;48.592;8.858;2022-12-05T14:56:07;7.40;99.90
23124;DHT22;11731;48.592;8.858;2022-12-05T14:58:40;7.40;99.90
23124;DHT22;11731;48.592;8.858;2022-12-05T15:01:14;7.40;99.90
23124;DHT22;11731;48.592;8.858;2022-12-05T15:03:58;7.40;99.90
23124;DHT22;11731;48.592;8.858;2022-12-05T15:06:28;7.50;99.90
23124;DHT22;11731;48.592;8.858;2022-12-05T15:09:02;7.60;99.90
23124;DHT22;11731;48.592;8.858;2022-12-05T15:11:33;7.90;99.90
23124;DHT22;11731;48.592;8.858;2022-12-05T15:14:15;7.70;99.90
23124;DHT22;11731;48.592;8.858;2022-12-05T15:16:48;7.70;99.90
23124;DHT22;11731;48.592;8.858;2022-12-05T15:19:50;7.60;99.90
23124;DHT22;11731;48.592;8.858;2022-12-05T15:22:56;7.80;99.90
23124;DHT22;11731;48.592;8.858;2022-12-05T15:25:29;8.10;99.90
23124;DHT22;11731;48.592;8.858;2022-12-05T15:28:01;7.80;99.90
23124;DHT22;11731;48.592;8.858;2022-12-05T15:30:30;7.90;99.90
23124;DHT22;11731;48.592;8.858;2022-12-05T15:32:58;7.80;99.90
23124;DHT22;11731;48.592;8.858;2022-12-05T15:35:26;7.60;99.90
23124;DHT22;11731;48.592;8.858;2022-12-05T15:37:57;7.50;99.90
23124;DHT22;11731;48.592;8.858;2022-12-05T15:40:32;7.50;99.90
23124;DHT22;11731;48.592;8.858;2022-12-05T15:43:27;7.30;99.90
23124;DHT22;11731;48.592;8.858;2022-12-05T15:46:20;7.50;99.90
23124;DHT22;11731;48.592;8.858;2022-12-05T15:48:48;7.70;99.90
23124;DHT22;11731;48.592;8.858;2022-12-05T15:51:16;7.70;99.90
23124;DHT22;11731;48.592;8.858;2022-12-05T15:53:46;7.80;99.90
23124;DHT22;11731;48.592;8.858;2022-12-05T15:56:17;7.80;99.90
23124;DHT22;11731;48.592;8.858;2022-12-05T15:58:50;8.00;99.90
23124;DHT22;11731;48.592;8.858;2022-12-05T16:01:21;7.90;99.90
23124;DHT22;11731;48.592;8.858;2022-12-05T16:03:52;7.80;99.90
23124;DHT22;11731;48.592;8.858;2022-12-05T16:06:24;7.80;99.90
23124;DHT22;11731;48.592;8.858;2022-12-05T16:08:54;7.90;99.90
23124;DHT22;11731;48.592;8.858;2022-12-05T16:11:23;7.90;99.90
23124;DHT22;11731;48.592;8.858;2022-12-05T16:13:54;8.00;99.90
23124;DHT22;11731;48.592;8.858;2022-12-05T16:16:24;8.00;99.90
23124;DHT22;11731;48.592;8.858;2022-12-05T16:18:55;7.80;99.90
23124;DHT22;11731;48.592;8.858;2022-12-05T16:21:30;7.80;99.90
23124;DHT22;11731;48.592;8.858;2022-12-05T16:24:02;7.90;99.90
23124;DHT22;11731;48.592;8.858;2022-12-05T16:26:36;7.70;99.90
23124;DHT22;11731;48.592;8.858;2022-12-05T16:29:05;7.80;99.90
23124;DHT22;11731;48.592;8.858;2022-12-05T16:31:34;7.90;99.90
23124;DHT22;11731;48.592;8.858;2022-12-05T16:34:05;7.90;99.90
23124;DHT22;11731;48.592;8.858;2022-12-05T16:37:28;7.90;99.90
23124;DHT22;11731;48.592;8.858;2022-12-05T16:39:47;8.10;99.90
23124;DHT22;11731;48.592;8.858;2022-12-05T16:42:22;8.30;99.90
23124;DHT22;11731;48.592;8.858;2022-12-05T16:44:56;8.50;99.90
23124;DHT22;11731;48.592;8.858;2022-12-05T16:47:52;8.80;99.90
23124;DHT22;11731;48.592;8.858;2022-12-05T16:50:22;8.70;99.90
23124;DHT22;11731;48.592;8.858;2022-12-05T16:52:49;8.90;99.90
23124;DHT22;11731;48.592;8.858;2022-12-05T16:55:16;8.90;99.90
23124;DHT22;11731;48.592;8.858;2022-12-05T16:57:52;8.80;99.90
23124;DHT22;11731;48.592;8.858;2022-12-05T17:00:21;8.70;99.90
23124;DHT22;11731;48.592;8.858;2022-12-05T17:02:48;8.80;99.90
23124;DHT22;11731;48.592;8.858;2022-12-05T17:05:16;8.90;99.90
23124;DHT22;11731;48.592;8.858;2022-12-05T17:07:43;9.20;99.90
23124;DHT22;11731;48.592;8.858;2022-12-05T17:10:10;9.50;99.90